createdAt,value
2018-09-07T00:00:57.262Z,37.00
2018-09-07T00:01:57.286Z,33.80
2018-09-07T00:02:57.324Z,33.50
2018-09-07T00:03:57.316Z,35.10
2018-09-07T00:04:57.427Z,36.60
2018-09-07T00:05:57.365Z,33.30
2018-09-07T00:06:57.385Z,34.30
2018-09-07T00:07:57.397Z,33.20
2018-09-07T00:08:57.425Z,35.10
2018-09-07T00:09:57.440Z,34.90
2018-09-07T00:10:57.470Z,34.50
2018-09-07T00:11:57.478Z,32.20
2018-09-07T00:12:57.497Z,32.70
2018-09-07T00:13:57.520Z,32.80
2018-09-07T00:14:57.538Z,37.90
2018-09-07T00:15:57.559Z,35.00
2018-09-07T00:16:57.582Z,34.00
2018-09-07T00:17:57.643Z,34.40
2018-09-07T00:18:57.618Z,32.80
2018-09-07T00:19:57.638Z,33.90
2018-09-07T00:20:57.676Z,34.50
2018-09-07T00:21:57.691Z,33.50
2018-09-07T00:22:57.697Z,31.80
2018-09-07T00:23:57.720Z,33.90
2018-09-07T00:24:57.765Z,32.80
2018-09-07T00:25:57.771Z,37.20
2018-09-07T00:26:57.785Z,42.70
2018-09-07T00:27:57.810Z,44.40
2018-09-07T00:28:57.818Z,42.90
2018-09-07T00:29:57.838Z,41.20
2018-09-07T00:30:57.863Z,66.80
2018-09-07T00:31:57.900Z,64.60
2018-09-07T00:32:57.902Z,69.90
2018-09-07T00:33:57.921Z,99.10
2018-09-07T00:34:57.974Z,94.00
2018-09-07T00:35:57.957Z,90.30
2018-09-07T00:36:57.985Z,91.30
2018-09-07T00:37:58.001Z,76.60
2018-09-07T00:38:58.034Z,77.30
2018-09-07T00:39:58.041Z,72.60
2018-09-07T00:40:58.068Z,69.20
2018-09-07T00:41:58.077Z,63.50
2018-09-07T00:42:58.124Z,61.50
2018-09-07T00:43:58.122Z,64.10
2018-09-07T00:44:58.140Z,61.40
2018-09-07T00:45:58.164Z,64.80
2018-09-07T00:46:58.179Z,61.00
2018-09-07T00:47:58.222Z,62.60
2018-09-07T00:48:58.236Z,59.90
2018-09-07T00:49:58.239Z,57.80
2018-09-07T00:50:58.263Z,54.50
2018-09-07T00:51:58.285Z,54.30
2018-09-07T00:52:58.308Z,54.60
2018-09-07T00:53:58.323Z,50.60
2018-09-07T00:54:58.366Z,45.20
2018-09-07T00:55:58.367Z,46.50
2018-09-07T00:56:58.388Z,44.70
2018-09-07T00:57:58.440Z,39.10
2018-09-07T00:58:58.433Z,41.40
2018-09-07T00:59:58.439Z,38.40
2018-09-07T01:00:58.464Z,36.90
2018-09-07T01:01:58.487Z,38.90
2018-09-07T01:02:58.513Z,35.50
2018-09-07T01:03:58.532Z,35.20
2018-09-07T01:04:58.576Z,34.00
2018-09-07T01:05:58.584Z,35.40
2018-09-07T01:06:58.588Z,32.00
2018-09-07T01:07:58.602Z,31.40
2018-09-07T01:08:58.627Z,31.60
2018-09-07T01:09:58.650Z,29.60
2018-09-07T01:10:58.666Z,32.10
2018-09-07T01:11:58.699Z,28.70
2018-09-07T01:12:58.700Z,30.30
2018-09-07T01:13:58.723Z,31.30
2018-09-07T01:14:58.744Z,28.80
2018-09-07T01:15:58.764Z,27.40
2018-09-07T01:16:58.787Z,26.90
2018-09-07T01:17:58.801Z,29.40
2018-09-07T01:18:58.823Z,26.40
2018-09-07T01:19:58.849Z,29.20
2018-09-07T01:20:58.866Z,25.30
2018-09-07T01:21:58.899Z,29.40
2018-09-07T01:22:58.902Z,25.00
2018-09-07T01:23:58.921Z,29.50
2018-09-07T01:24:58.969Z,26.30
2018-09-07T01:25:58.961Z,28.70
2018-09-07T01:26:58.984Z,27.20
2018-09-07T01:27:59.025Z,26.50
2018-09-07T01:28:59.043Z,27.30
2018-09-07T01:29:59.042Z,28.00
2018-09-07T01:30:59.069Z,27.00
2018-09-07T01:31:59.080Z,29.20
2018-09-07T01:32:59.122Z,26.70
2018-09-07T01:33:59.139Z,26.00
2018-09-07T01:34:59.153Z,25.50
2018-09-07T01:35:59.163Z,25.20
2018-09-07T01:36:59.181Z,27.30
2018-09-07T01:37:59.211Z,27.70
2018-09-07T01:38:59.274Z,27.90
2018-09-07T01:39:59.270Z,27.20
2018-09-07T01:40:59.288Z,26.20
2018-09-07T01:41:59.283Z,24.20
2018-09-07T01:42:59.319Z,24.90
2018-09-07T01:43:59.319Z,26.30
2018-09-07T01:44:59.359Z,26.70
2018-09-07T01:45:59.361Z,28.00
2018-09-07T01:46:59.383Z,27.20
2018-09-07T01:47:59.417Z,25.70
2018-09-07T01:48:59.446Z,28.30
2018-09-07T01:49:59.439Z,28.10
2018-09-07T01:50:59.461Z,28.00
2018-09-07T01:51:59.483Z,26.10
2018-09-07T01:52:59.502Z,26.30
2018-09-07T01:53:59.524Z,28.70
2018-09-07T01:54:59.537Z,28.10
2018-09-07T01:55:59.574Z,27.60
2018-09-07T01:56:59.588Z,27.40
2018-09-07T01:57:59.601Z,26.30
2018-09-07T01:58:59.625Z,26.60
2018-09-07T01:59:59.665Z,27.00
2018-09-07T02:00:59.662Z,24.80
2018-09-07T02:01:59.681Z,28.70
2018-09-07T02:02:59.700Z,27.30
2018-09-07T02:03:59.727Z,25.50
2018-09-07T02:04:59.740Z,25.70
2018-09-07T02:05:59.764Z,29.10
2018-09-07T02:06:59.795Z,25.90
2018-09-07T02:07:59.805Z,24.70
2018-09-07T02:08:59.819Z,25.60
2018-09-07T02:09:59.870Z,23.10
2018-09-07T02:10:59.871Z,23.30
2018-09-07T02:11:59.887Z,23.80
2018-09-07T02:12:59.904Z,23.80
2018-09-07T02:13:59.924Z,22.10
2018-09-07T02:14:59.986Z,23.80
2018-09-07T02:15:59.968Z,22.10
2018-09-07T02:16:59.981Z,20.10
2018-09-07T02:18:00.025Z,21.90
2018-09-07T02:19:00.036Z,20.30
2018-09-07T02:20:00.054Z,21.30
2018-09-07T02:21:00.086Z,23.80
2018-09-07T02:22:00.096Z,22.50
2018-09-07T02:23:00.111Z,23.30
2018-09-07T02:24:00.120Z,22.10
2018-09-07T02:25:00.150Z,21.90
2018-09-07T02:26:00.177Z,20.10
2018-09-07T02:27:00.184Z,22.40
2018-09-07T02:28:00.211Z,21.30
2018-09-07T02:29:00.220Z,25.80
2018-09-07T02:30:00.245Z,24.00
2018-09-07T02:31:00.267Z,21.50
2018-09-07T02:32:00.283Z,22.90
2018-09-07T02:33:00.329Z,22.60
2018-09-07T02:34:00.327Z,18.70
2018-09-07T02:35:00.342Z,20.00
2018-09-07T02:36:00.362Z,20.90
2018-09-07T02:37:00.383Z,19.90
2018-09-07T02:38:00.409Z,19.20
2018-09-07T02:39:00.431Z,19.40
2018-09-07T02:40:00.451Z,22.00
2018-09-07T02:41:00.474Z,18.20
2018-09-07T02:42:00.489Z,19.30
2018-09-07T02:43:00.512Z,18.60
2018-09-07T02:44:00.521Z,20.40
2018-09-07T02:45:00.554Z,17.40
2018-09-07T02:46:00.564Z,17.80
2018-09-07T02:47:00.591Z,17.40
2018-09-07T02:48:00.624Z,16.70
2018-09-07T02:49:00.631Z,15.80
2018-09-07T02:50:00.646Z,16.20
2018-09-07T02:51:00.666Z,14.70
2018-09-07T02:52:00.684Z,15.00
2018-09-07T02:53:00.714Z,14.60
2018-09-07T02:54:00.738Z,12.40
2018-09-07T02:55:00.745Z,17.00
2018-09-07T02:56:00.779Z,13.90
2018-09-07T02:57:00.791Z,14.80
2018-09-07T02:58:00.806Z,13.90
2018-09-07T02:59:00.827Z,13.60
2018-09-07T03:00:00.847Z,14.60
2018-09-07T03:01:00.868Z,13.10
2018-09-07T03:02:00.888Z,13.90
2018-09-07T03:03:00.921Z,12.20
2018-09-07T03:04:00.928Z,12.10
2018-09-07T03:05:00.961Z,11.90
2018-09-07T03:06:00.972Z,10.80
2018-09-07T03:07:00.989Z,9.80
2018-09-07T03:08:01.029Z,11.60
2018-09-07T03:09:01.041Z,11.30
2018-09-07T03:10:01.052Z,11.70
2018-09-07T03:11:01.078Z,11.60
2018-09-07T03:12:01.090Z,12.10
2018-09-07T03:13:01.107Z,10.60
2018-09-07T03:14:01.127Z,10.00
2018-09-07T03:15:01.159Z,10.20
2018-09-07T03:16:01.173Z,10.10
2018-09-07T03:17:01.194Z,11.20
2018-09-07T03:18:01.216Z,10.40
2018-09-07T03:19:01.231Z,9.40
2018-09-07T03:20:01.254Z,9.30
2018-09-07T03:21:01.270Z,10.20
2018-09-07T03:22:01.288Z,8.70
2018-09-07T03:23:01.310Z,10.10
2018-09-07T03:24:01.328Z,10.50
2018-09-07T03:25:01.351Z,9.70
2018-09-07T03:26:01.374Z,10.10
2018-09-07T03:27:01.390Z,8.20
2018-09-07T03:28:01.414Z,9.90
2018-09-07T03:29:01.450Z,10.50
2018-09-07T03:30:01.471Z,10.50
2018-09-07T03:31:01.485Z,11.40
2018-09-07T03:32:01.519Z,8.70
2018-09-07T03:33:01.513Z,10.90
2018-09-07T03:34:01.533Z,10.80
2018-09-07T03:35:01.549Z,9.10
2018-09-07T03:36:01.586Z,8.10
2018-09-07T03:37:01.588Z,9.70
2018-09-07T03:38:01.611Z,9.20
2018-09-07T03:39:01.632Z,11.30
2018-09-07T03:40:01.652Z,9.50
2018-09-07T03:41:01.693Z,9.40
2018-09-07T03:42:01.713Z,11.30
2018-09-07T03:43:01.714Z,9.50
2018-09-07T03:44:01.739Z,8.60
2018-09-07T03:45:01.755Z,8.50
2018-09-07T03:46:01.790Z,8.20
2018-09-07T03:47:01.814Z,7.00
2018-09-07T03:48:01.807Z,8.40
2018-09-07T03:49:01.834Z,8.60
2018-09-07T03:50:01.845Z,10.20
2018-09-07T03:51:01.873Z,9.30
2018-09-07T03:52:01.883Z,7.30
2018-09-07T03:53:01.909Z,7.90
2018-09-07T03:54:01.936Z,8.50
2018-09-07T03:55:01.949Z,6.80
2018-09-07T03:56:01.970Z,8.10
2018-09-07T03:57:01.995Z,9.30
2018-09-07T03:58:02.011Z,7.60
2018-09-07T03:59:02.039Z,9.30
2018-09-07T04:00:02.059Z,9.70
2018-09-07T04:01:02.070Z,9.20
2018-09-07T04:02:02.094Z,8.50
2018-09-07T04:03:02.116Z,10.20
2018-09-07T04:04:02.140Z,8.80
2018-09-07T04:05:02.157Z,7.80
2018-09-07T04:06:02.183Z,10.40
2018-09-07T04:07:02.199Z,10.20
2018-09-07T04:08:02.208Z,10.00
2018-09-07T04:09:02.240Z,9.90
2018-09-07T04:10:02.267Z,10.40
2018-09-07T04:11:02.302Z,7.50
2018-09-07T04:12:02.283Z,8.50
2018-09-07T04:13:02.316Z,9.00
2018-09-07T04:14:02.336Z,8.70
2018-09-07T04:15:02.347Z,8.50
2018-09-07T04:16:02.373Z,9.90
2018-09-07T04:17:02.388Z,11.50
2018-09-07T04:18:02.407Z,11.40
2018-09-07T04:19:02.425Z,10.20
2018-09-07T04:20:02.453Z,12.20
2018-09-07T04:21:02.467Z,9.40
2018-09-07T04:22:02.506Z,9.80
2018-09-07T04:23:02.513Z,9.60
2018-09-07T04:24:02.527Z,10.30
2018-09-07T04:25:02.548Z,10.70
2018-09-07T04:26:02.564Z,9.80
2018-09-07T04:27:02.593Z,11.60
2018-09-07T04:28:02.606Z,13.70
2018-09-07T04:29:02.632Z,13.80
2018-09-07T04:30:02.654Z,14.40
2018-09-07T04:31:02.668Z,12.40
2018-09-07T04:32:02.698Z,12.80
2018-09-07T04:33:02.712Z,13.50
2018-09-07T04:34:02.749Z,13.80
2018-09-07T04:35:02.754Z,10.10
2018-09-07T04:36:02.779Z,13.60
2018-09-07T04:37:02.800Z,12.60
2018-09-07T04:38:02.812Z,11.90
2018-09-07T04:39:02.834Z,12.50
2018-09-07T04:40:02.849Z,13.70
2018-09-07T04:41:02.925Z,12.80
2018-09-07T04:42:02.884Z,11.80
2018-09-07T04:43:02.912Z,13.80
2018-09-07T04:44:02.933Z,13.30
2018-09-07T04:45:02.968Z,13.60
2018-09-07T04:46:02.985Z,13.10
2018-09-07T04:47:02.995Z,13.20
2018-09-07T04:48:03.108Z,14.20
2018-09-07T04:49:03.030Z,14.50
2018-09-07T04:50:03.051Z,15.80
2018-09-07T04:51:03.065Z,14.10
2018-09-07T04:52:03.090Z,17.40
2018-09-07T04:53:03.117Z,12.60
2018-09-07T04:54:03.123Z,13.10
2018-09-07T04:55:03.141Z,14.80
2018-09-07T04:56:03.172Z,12.50
2018-09-07T04:57:03.188Z,15.30
2018-09-07T04:58:03.208Z,14.50
2018-09-07T04:59:03.227Z,15.20
2018-09-07T05:00:03.243Z,16.30
2018-09-07T05:01:03.266Z,17.90
2018-09-07T05:02:03.295Z,16.70
2018-09-07T05:03:03.303Z,15.30
2018-09-07T05:04:03.337Z,17.20
2018-09-07T05:05:03.347Z,19.20
2018-09-07T05:06:03.367Z,19.30
2018-09-07T05:07:03.390Z,20.30
2018-09-07T05:08:03.402Z,21.70
2018-09-07T05:09:03.436Z,22.60
2018-09-07T05:10:03.452Z,23.40
2018-09-07T05:11:03.477Z,23.70
2018-09-07T05:12:03.483Z,26.10
2018-09-07T05:13:03.507Z,25.70
2018-09-07T05:14:03.528Z,28.90
2018-09-07T05:15:03.546Z,26.70
2018-09-07T05:16:03.577Z,29.40
2018-09-07T05:17:03.581Z,28.00
2018-09-07T05:18:03.602Z,31.60
2018-09-07T05:19:03.620Z,27.10
2018-09-07T05:20:03.639Z,27.10
2018-09-07T05:21:03.660Z,29.30
2018-09-07T05:22:03.752Z,27.80
2018-09-07T05:23:03.694Z,29.80
2018-09-07T05:24:03.713Z,28.50
2018-09-07T05:25:03.735Z,29.00
2018-09-07T05:26:03.758Z,29.90
2018-09-07T05:27:03.798Z,29.10
2018-09-07T05:28:03.805Z,31.70
2018-09-07T05:29:03.823Z,29.80
2018-09-07T05:30:03.834Z,29.80
2018-09-07T05:31:03.894Z,31.80
2018-09-07T05:32:03.955Z,31.40
2018-09-07T05:33:03.897Z,30.00
2018-09-07T05:34:03.916Z,28.10
2018-09-07T05:35:03.934Z,26.30
2018-09-07T05:36:03.959Z,27.20
2018-09-07T05:37:03.974Z,22.60
2018-09-07T05:38:04.012Z,23.70
2018-09-07T05:39:04.046Z,22.00
2018-09-07T05:40:04.038Z,29.20
2018-09-07T05:41:04.063Z,27.20
2018-09-07T05:42:04.133Z,25.60
2018-09-07T05:43:04.098Z,26.60
2018-09-07T05:44:04.120Z,26.60
2018-09-07T05:45:04.137Z,30.40
2018-09-07T05:46:04.169Z,28.60
2018-09-07T05:47:04.192Z,26.00
2018-09-07T05:48:04.204Z,26.40
2018-09-07T05:49:04.229Z,26.80
2018-09-07T05:50:04.247Z,26.60
2018-09-07T05:51:04.267Z,26.40
2018-09-07T05:52:04.288Z,26.20
2018-09-07T05:53:04.307Z,25.80
2018-09-07T05:54:04.331Z,23.00
2018-09-07T05:55:04.357Z,25.70
2018-09-07T05:56:04.375Z,23.90
2018-09-07T05:57:04.395Z,24.00
2018-09-07T05:58:04.438Z,24.80
2018-09-07T05:59:04.450Z,22.60
2018-09-07T06:00:04.470Z,22.10
2018-09-07T06:01:04.485Z,24.40
2018-09-07T06:02:04.504Z,20.80
2018-09-07T06:03:04.526Z,21.30
2018-09-07T06:04:04.551Z,22.30
2018-09-07T06:05:04.596Z,23.80
2018-09-07T06:06:04.600Z,24.90
2018-09-07T06:07:04.633Z,20.50
2018-09-07T06:08:04.654Z,21.80
2018-09-07T06:09:04.669Z,22.80
2018-09-07T06:10:04.690Z,19.30
2018-09-07T06:11:04.715Z,23.10
2018-09-07T06:12:04.741Z,25.40
2018-09-07T06:13:04.764Z,27.30
2018-09-07T06:14:04.806Z,25.00
2018-09-07T06:15:04.851Z,26.20
2018-09-07T06:16:04.834Z,28.10
2018-09-07T06:17:04.861Z,27.10
2018-09-07T06:18:04.886Z,22.30
2018-09-07T06:19:04.923Z,26.00
2018-09-07T06:20:04.948Z,26.00
2018-09-07T06:21:04.958Z,27.00
2018-09-07T06:22:04.985Z,28.70
2018-09-07T06:23:05.021Z,26.90
2018-09-07T06:24:05.044Z,26.60
2018-09-07T06:25:05.063Z,25.70
2018-09-07T06:26:05.079Z,27.90
2018-09-07T06:27:05.108Z,28.20
2018-09-07T06:28:05.154Z,28.10
2018-09-07T06:29:05.174Z,28.70
2018-09-07T06:30:05.178Z,27.20
2018-09-07T06:31:05.217Z,27.50
2018-09-07T06:32:05.236Z,29.70
2018-09-07T06:33:05.359Z,29.20
2018-09-07T06:34:05.276Z,28.80
2018-09-07T06:35:05.311Z,28.20
2018-09-07T06:36:05.326Z,29.30
2018-09-07T06:37:05.362Z,27.90
2018-09-07T06:38:05.382Z,27.80
2018-09-07T06:39:05.525Z,29.20
2018-09-07T06:40:05.435Z,28.80
2018-09-07T06:41:05.448Z,27.70
2018-09-07T06:42:05.479Z,27.30
2018-09-07T06:43:05.522Z,26.00
2018-09-07T06:44:05.558Z,25.70
2018-09-07T06:45:05.543Z,25.40
2018-09-07T06:46:05.576Z,26.20
2018-09-07T06:47:05.659Z,25.50
2018-09-07T06:48:05.632Z,26.90
2018-09-07T06:49:05.648Z,28.70
2018-09-07T06:50:05.691Z,24.50
2018-09-07T06:51:05.691Z,27.70
2018-09-07T06:52:05.742Z,27.30
2018-09-07T06:53:05.747Z,26.50
2018-09-07T06:54:05.775Z,30.10
2018-09-07T06:55:05.790Z,28.50
2018-09-07T06:56:05.821Z,26.70
2018-09-07T06:57:05.838Z,29.70
2018-09-07T06:58:05.865Z,27.90
2018-09-07T06:59:05.875Z,26.30
2018-09-07T07:00:05.905Z,28.70
2018-09-07T07:01:05.929Z,29.80
2018-09-07T07:02:05.964Z,28.90
2018-09-07T07:03:05.987Z,25.10
2018-09-07T07:04:06.005Z,24.30
2018-09-07T07:05:06.038Z,28.30
2018-09-07T07:06:06.052Z,27.10
2018-09-07T07:07:06.062Z,28.80
2018-09-07T07:08:06.151Z,28.10
2018-09-07T07:09:06.104Z,27.60
2018-09-07T07:10:06.124Z,29.90
2018-09-07T07:11:06.147Z,28.00
2018-09-07T07:12:06.175Z,30.30
2018-09-07T07:13:06.190Z,26.10
2018-09-07T07:14:06.218Z,28.70
2018-09-07T07:15:06.242Z,29.30
2018-09-07T07:16:06.258Z,26.90
2018-09-07T07:17:06.283Z,25.20
2018-09-07T07:18:06.309Z,26.40
2018-09-07T07:19:06.323Z,26.50
2018-09-07T07:20:06.364Z,28.40
2018-09-07T07:21:06.373Z,27.30
2018-09-07T07:22:06.400Z,29.30
2018-09-07T07:23:06.423Z,29.20
2018-09-07T07:24:06.465Z,28.50
2018-09-07T07:25:06.456Z,27.80
2018-09-07T07:26:06.480Z,29.40
2018-09-07T07:27:06.523Z,28.70
2018-09-07T07:28:06.523Z,26.30
2018-09-07T07:29:06.583Z,26.60
2018-09-07T07:30:06.565Z,25.60
2018-09-07T07:31:06.591Z,25.20
2018-09-07T07:32:06.609Z,30.20
2018-09-07T07:33:06.658Z,22.70
2018-09-07T07:34:06.664Z,23.00
2018-09-07T07:35:06.677Z,21.30
2018-09-07T07:36:06.699Z,20.70
2018-09-07T07:37:06.750Z,21.90
2018-09-07T07:38:06.743Z,18.90
2018-09-07T07:39:06.765Z,22.80
2018-09-07T07:40:06.785Z,23.40
2018-09-07T07:41:06.809Z,19.40
2018-09-07T07:42:06.835Z,21.70
2018-09-07T07:43:06.856Z,22.50
2018-09-07T07:44:06.870Z,19.80
2018-09-07T07:45:06.891Z,19.80
2018-09-07T07:46:06.919Z,18.10
2018-09-07T07:47:06.951Z,19.50
2018-09-07T07:48:07.112Z,16.10
2018-09-07T07:49:06.981Z,17.70
2018-09-07T07:50:07.006Z,17.40
2018-09-07T07:51:07.033Z,19.20
2018-09-07T07:52:07.058Z,19.50
2018-09-07T07:53:07.073Z,17.20
2018-09-07T07:54:07.116Z,15.50
2018-09-07T07:55:07.115Z,15.90
2018-09-07T07:56:07.155Z,16.00
2018-09-07T07:57:07.169Z,14.50
2018-09-07T07:58:07.206Z,15.80
2018-09-07T07:59:07.215Z,15.90
2018-09-07T08:00:07.235Z,17.10
2018-09-07T08:01:07.258Z,15.80
2018-09-07T08:02:07.277Z,14.60
2018-09-07T08:03:07.304Z,15.80
2018-09-07T08:04:07.331Z,16.00
2018-09-07T08:05:07.377Z,14.10
2018-09-07T08:06:07.384Z,14.10
2018-09-07T08:07:07.399Z,15.30
2018-09-07T08:08:07.420Z,15.30
2018-09-07T08:09:07.447Z,15.50
2018-09-07T08:10:07.472Z,13.40
2018-09-07T08:11:07.490Z,15.30
2018-09-07T08:12:07.510Z,16.90
2018-09-07T08:13:07.541Z,14.80
2018-09-07T08:14:07.558Z,16.00
2018-09-07T08:15:07.608Z,13.70
2018-09-07T08:16:07.674Z,15.40
2018-09-07T08:17:07.639Z,16.00
2018-09-07T08:18:07.654Z,15.00
2018-09-07T08:19:07.700Z,14.50
2018-09-07T08:20:07.697Z,18.00
2018-09-07T08:21:07.723Z,15.20
2018-09-07T08:22:07.743Z,14.20
2018-09-07T08:23:07.763Z,20.90
2018-09-07T08:24:07.792Z,17.00
2018-09-07T08:25:07.816Z,17.50
2018-09-07T08:26:07.831Z,18.30
2018-09-07T08:27:07.859Z,15.40
2018-09-07T08:28:07.876Z,16.70
2018-09-07T08:29:07.893Z,17.30
2018-09-07T08:30:07.932Z,16.60
2018-09-07T08:31:07.947Z,16.20
2018-09-07T08:32:07.963Z,16.10
2018-09-07T08:33:08.046Z,14.90
2018-09-07T08:34:08.019Z,15.30
2018-09-07T08:35:08.034Z,15.50
2018-09-07T08:36:08.046Z,16.80
2018-09-07T08:37:08.072Z,15.60
2018-09-07T08:38:08.091Z,18.80
2018-09-07T08:39:08.112Z,15.60
2018-09-07T08:40:08.152Z,16.40
2018-09-07T08:41:08.180Z,16.00
2018-09-07T08:42:08.177Z,13.60
2018-09-07T08:43:08.220Z,13.60
2018-09-07T08:44:08.230Z,14.80
2018-09-07T08:45:08.251Z,12.60
2018-09-07T08:46:08.265Z,14.40
2018-09-07T08:47:08.287Z,16.10
2018-09-07T08:48:08.315Z,11.20
2018-09-07T08:49:08.333Z,12.50
2018-09-07T08:50:08.354Z,12.60
2018-09-07T08:51:08.376Z,11.30
2018-09-07T08:52:08.418Z,9.70
2018-09-07T08:53:08.423Z,12.20
2018-09-07T08:54:08.450Z,10.00
2018-09-07T08:55:08.530Z,13.60
2018-09-07T08:56:08.492Z,9.20
2018-09-07T08:57:08.519Z,9.90
2018-09-07T08:58:08.563Z,8.40
2018-09-07T08:59:08.555Z,10.70
2018-09-07T09:00:08.603Z,7.20
2018-09-07T09:01:08.600Z,8.20
2018-09-07T09:02:08.626Z,10.00
2018-09-07T09:03:08.647Z,8.40
2018-09-07T09:04:08.683Z,9.60
2018-09-07T09:05:08.691Z,9.80
2018-09-07T09:06:08.718Z,8.90
2018-09-07T09:07:08.734Z,7.70
2018-09-07T09:08:08.762Z,9.20
2018-09-07T09:09:08.781Z,8.60
2018-09-07T09:10:08.804Z,8.10
2018-09-07T09:11:08.836Z,8.10
2018-09-07T09:12:08.852Z,9.20
2018-09-07T09:13:08.872Z,10.50
2018-09-07T09:14:08.902Z,10.40
2018-09-07T09:15:08.931Z,8.50
2018-09-07T09:16:08.946Z,12.20
2018-09-07T09:17:08.969Z,10.20
2018-09-07T09:18:08.988Z,11.00
2018-09-07T09:19:09.013Z,9.70
2018-09-07T09:20:09.033Z,11.00
2018-09-07T09:21:09.059Z,9.70
2018-09-07T09:22:09.091Z,8.40
2018-09-07T09:23:09.101Z,10.90
2018-09-07T09:24:09.148Z,8.80
2018-09-07T09:25:09.157Z,11.80
2018-09-07T09:26:09.165Z,10.70
2018-09-07T09:27:09.186Z,12.10
2018-09-07T09:28:09.214Z,10.40
2018-09-07T09:29:09.249Z,12.20
2018-09-07T09:30:09.257Z,10.80
2018-09-07T09:31:09.300Z,10.80
2018-09-07T09:32:09.315Z,12.30
2018-09-07T09:33:09.341Z,13.20
2018-09-07T09:34:09.341Z,12.90
2018-09-07T09:35:09.367Z,11.90
2018-09-07T09:36:09.393Z,13.70
2018-09-07T09:37:09.428Z,12.30
2018-09-07T09:38:09.446Z,10.60
2018-09-07T09:39:09.457Z,12.60
2018-09-07T09:40:09.485Z,10.10
2018-09-07T09:41:09.500Z,12.40
2018-09-07T09:42:09.531Z,13.60
2018-09-07T09:43:09.572Z,11.00
2018-09-07T09:44:09.577Z,11.80
2018-09-07T09:45:09.596Z,12.00
2018-09-07T09:46:09.618Z,13.80
2018-09-07T09:47:09.662Z,10.40
2018-09-07T09:48:09.660Z,12.00
2018-09-07T09:49:09.685Z,11.60
2018-09-07T09:50:09.710Z,11.40
2018-09-07T09:51:09.733Z,11.20
2018-09-07T09:52:09.755Z,13.20
2018-09-07T09:53:09.826Z,11.20
2018-09-07T09:54:09.807Z,11.40
2018-09-07T09:55:09.829Z,13.60
2018-09-07T09:56:09.848Z,10.80
2018-09-07T09:57:09.862Z,11.50
2018-09-07T09:58:09.890Z,12.30
2018-09-07T09:59:09.918Z,12.80
2018-09-07T10:00:09.947Z,13.10
2018-09-07T10:01:09.966Z,11.00
2018-09-07T10:02:09.990Z,11.90
2018-09-07T10:03:10.007Z,15.80
2018-09-07T10:04:10.055Z,13.00
2018-09-07T10:05:10.077Z,14.10
2018-09-07T10:06:10.074Z,15.40
2018-09-07T10:07:10.117Z,12.70
2018-09-07T10:08:10.126Z,13.30
2018-09-07T10:09:10.143Z,12.20
2018-09-07T10:10:10.173Z,14.10
2018-09-07T10:11:10.188Z,15.30
2018-09-07T10:12:10.232Z,13.20
2018-09-07T10:13:10.241Z,13.10
2018-09-07T10:14:10.272Z,12.20
2018-09-07T10:15:10.275Z,12.80
2018-09-07T10:16:10.301Z,15.40
2018-09-07T10:17:10.326Z,14.60
2018-09-07T10:18:10.352Z,13.70
2018-09-07T10:19:10.485Z,14.80
2018-09-07T10:20:10.393Z,12.90
2018-09-07T10:21:10.425Z,11.50
2018-09-07T10:22:10.441Z,14.10
2018-09-07T10:23:10.458Z,14.00
2018-09-07T10:24:10.481Z,14.10
2018-09-07T10:25:10.505Z,13.70
2018-09-07T10:26:10.547Z,16.50
2018-09-07T10:27:10.573Z,12.20
2018-09-07T10:28:10.584Z,14.00
2018-09-07T10:29:10.604Z,15.10
2018-09-07T10:30:10.619Z,13.70
2018-09-07T10:31:10.658Z,16.60
2018-09-07T10:32:10.686Z,13.60
2018-09-07T10:33:10.692Z,15.70
2018-09-07T10:34:10.724Z,12.40
2018-09-07T10:35:10.749Z,14.50
2018-09-07T10:36:10.761Z,14.40
2018-09-07T10:37:10.787Z,11.70
2018-09-07T10:38:10.811Z,15.50
2018-09-07T10:39:10.823Z,13.30
2018-09-07T10:40:10.857Z,14.20
2018-09-07T10:41:10.871Z,12.40
2018-09-07T10:42:10.896Z,12.50
2018-09-07T10:43:10.917Z,11.80
2018-09-07T10:44:10.975Z,13.90
2018-09-07T10:45:10.995Z,13.70
2018-09-07T10:46:10.987Z,13.00
2018-09-07T10:47:11.012Z,12.40
2018-09-07T10:48:11.040Z,11.50
2018-09-07T10:49:11.054Z,13.20
2018-09-07T10:50:11.086Z,13.80
2018-09-07T10:51:11.105Z,11.50
2018-09-07T10:52:11.122Z,10.50
2018-09-07T10:53:11.212Z,10.80
2018-09-07T10:54:11.179Z,11.90
2018-09-07T10:55:11.196Z,11.00
2018-09-07T10:56:11.232Z,15.00
2018-09-07T10:57:11.243Z,14.80
2018-09-07T10:58:11.259Z,10.50
2018-09-07T10:59:11.350Z,12.80
2018-09-07T11:00:11.306Z,12.40
2018-09-07T11:01:11.334Z,12.70
2018-09-07T11:02:11.352Z,10.40
2018-09-07T11:03:11.388Z,9.70
2018-09-07T11:04:11.396Z,10.90
2018-09-07T11:05:11.421Z,12.50
2018-09-07T11:06:11.452Z,11.90
2018-09-07T11:07:11.466Z,11.00
2018-09-07T11:08:11.496Z,10.10
2018-09-07T11:09:11.516Z,12.50
2018-09-07T11:10:11.539Z,14.10
2018-09-07T11:11:11.560Z,10.90
2018-09-07T11:12:11.585Z,10.60
2018-09-07T11:13:11.606Z,11.90
2018-09-07T11:14:11.634Z,10.20
2018-09-07T11:15:11.670Z,9.80
2018-09-07T11:16:11.680Z,9.10
2018-09-07T11:17:11.699Z,11.90
2018-09-07T11:18:11.729Z,7.80
2018-09-07T11:19:11.750Z,7.90
2018-09-07T11:20:11.771Z,7.40
2018-09-07T11:21:11.791Z,10.40
2018-09-07T11:22:11.903Z,8.80
2018-09-07T11:23:11.843Z,8.50
2018-09-07T11:24:11.891Z,8.00
2018-09-07T11:25:11.892Z,7.40
2018-09-07T11:26:11.905Z,6.50
2018-09-07T11:27:11.936Z,7.30
2018-09-07T11:28:11.948Z,6.80
2018-09-07T11:29:11.973Z,8.40
2018-09-07T11:30:12.007Z,9.40
2018-09-07T11:31:12.025Z,9.60
2018-09-07T11:32:12.049Z,9.80
2018-09-07T11:33:12.060Z,8.00
2018-09-07T11:34:12.083Z,9.60
2018-09-07T11:35:12.110Z,10.20
2018-09-07T11:36:12.128Z,8.60
2018-09-07T11:37:12.167Z,9.50
2018-09-07T11:38:12.179Z,10.10
2018-09-07T11:39:12.197Z,8.00
2018-09-07T11:40:12.221Z,12.50
2018-09-07T11:41:12.312Z,8.50
2018-09-07T11:42:12.262Z,8.70
2018-09-07T11:43:12.282Z,9.10
2018-09-07T11:44:12.303Z,11.70
2018-09-07T11:45:12.326Z,11.30
2018-09-07T11:46:12.371Z,9.20
2018-09-07T11:47:12.369Z,11.20
2018-09-07T11:48:12.406Z,8.80
2018-09-07T11:49:12.464Z,8.40
2018-09-07T11:50:12.434Z,7.60
2018-09-07T11:51:12.460Z,8.60
2018-09-07T11:52:12.483Z,11.40
2018-09-07T11:53:12.518Z,8.20
2018-09-07T11:54:12.522Z,8.00
2018-09-07T11:55:12.541Z,7.30
2018-09-07T11:56:12.576Z,15.10
2018-09-07T11:57:12.597Z,8.80
2018-09-07T11:58:12.723Z,8.20
2018-09-07T11:59:12.643Z,8.60
2018-09-07T12:00:12.654Z,7.60
2018-09-07T12:01:12.671Z,9.40
2018-09-07T12:02:12.817Z,6.90
2018-09-07T12:03:12.711Z,7.90
2018-09-07T12:04:12.838Z,10.60
2018-09-07T12:05:12.776Z,7.00
2018-09-07T12:06:12.776Z,7.30
2018-09-07T12:07:12.797Z,7.60
2018-09-07T12:08:12.821Z,12.30
2018-09-07T12:09:12.856Z,10.00
2018-09-07T12:10:12.862Z,10.10
2018-09-07T12:11:12.898Z,10.30
2018-09-07T12:12:12.965Z,14.60
2018-09-07T12:13:13.067Z,11.60
2018-09-07T12:14:12.957Z,15.70
2018-09-07T12:15:12.987Z,11.50
2018-09-07T12:16:12.999Z,11.00
2018-09-07T12:17:13.025Z,9.60
2018-09-07T12:18:13.035Z,9.80
2018-09-07T12:19:13.051Z,8.90
2018-09-07T12:20:13.076Z,9.00
2018-09-07T12:21:13.128Z,10.00
2018-09-07T12:22:13.116Z,10.00
2018-09-07T12:23:13.136Z,9.10
2018-09-07T12:24:13.158Z,10.00
2018-09-07T12:25:13.179Z,10.20
2018-09-07T12:26:13.200Z,8.40
2018-09-07T12:27:13.222Z,11.00
2018-09-07T12:28:13.301Z,9.00
2018-09-07T12:29:13.281Z,7.50
2018-09-07T12:30:13.285Z,7.70
2018-09-07T12:31:13.309Z,8.20
2018-09-07T12:32:13.336Z,7.60
2018-09-07T12:33:13.349Z,7.70
2018-09-07T12:34:13.379Z,6.70
2018-09-07T12:35:13.400Z,8.20
2018-09-07T12:36:13.417Z,6.70
2018-09-07T12:37:13.440Z,6.70
2018-09-07T12:38:13.469Z,6.00
2018-09-07T12:39:13.486Z,6.30
2018-09-07T12:40:13.504Z,5.90
2018-09-07T12:41:13.538Z,7.70
2018-09-07T12:42:13.549Z,9.00
2018-09-07T12:43:13.580Z,7.40
2018-09-07T12:44:13.600Z,9.20
2018-09-07T12:45:13.616Z,6.00
2018-09-07T12:46:13.641Z,6.00
2018-09-07T12:47:13.668Z,7.00
2018-09-07T12:48:13.679Z,10.70
2018-09-07T12:49:13.711Z,8.70
2018-09-07T12:50:13.724Z,10.70
2018-09-07T12:51:13.745Z,8.50
2018-09-07T12:52:13.760Z,14.20
2018-09-07T12:53:13.783Z,9.80
2018-09-07T12:54:13.821Z,6.70
2018-09-07T12:55:13.831Z,15.60
2018-09-07T12:56:13.930Z,11.10
2018-09-07T12:57:13.871Z,11.50
2018-09-07T12:58:13.898Z,11.90